sensor_id;sensor_type;location;lat;lon;timestamp;pressure;altitude;pressure_sealevel;temperature;humidity
44481;BME280;30184;42.018;23.670;2023-04-21T00:00:48;91123.41;;;6.12;81.32
44481;BME280;30184;42.018;23.670;2023-04-21T00:03:18;91109.72;;;6.03;81.28
44481;BME280;30184;42.018;23.670;2023-04-21T00:05:51;91016.66;;;5.35;81.21
44481;BME280;30184;42.018;23.670;2023-04-21T00:08:21;91128.25;;;6.01;81.45
44481;BME280;30184;42.018;23.670;2023-04-21T00:10:51;91092.25;;;5.91;81.08
44481;BME280;30184;42.018;23.670;2023-04-21T00:13:20;91101.16;;;5.84;81.09
44481;BME280;30184;42.018;23.670;2023-04-21T00:15:50;91114.44;;;5.98;81.28
44481;BME280;30184;42.018;23.670;2023-04-21T00:18:20;91115.28;;;5.69;81.20
44481;BME280;30184;42.018;23.670;2023-04-21T00:20:50;91121.88;;;5.91;81.44
44481;BME280;30184;42.018;23.670;2023-04-21T00:23:20;91110.00;;;5.85;81.41
44481;BME280;30184;42.018;23.670;2023-04-21T00:25:49;91112.00;;;5.81;81.57
44481;BME280;30184;42.018;23.670;2023-04-21T00:28:19;91113.41;;;5.66;82.05
44481;BME280;30184;42.018;23.670;2023-04-21T00:30:49;91119.13;;;5.68;82.37
44481;BME280;30184;42.018;23.670;2023-04-21T00:33:18;91115.34;;;5.65;82.47
44481;BME280;30184;42.018;23.670;2023-04-21T00:35:48;91109.81;;;5.49;82.23
44481;BME280;30184;42.018;23.670;2023-04-21T00:38:19;91118.97;;;5.55;82.49
44481;BME280;30184;42.018;23.670;2023-04-21T00:40:49;91113.69;;;5.48;82.71
44481;BME280;30184;42.018;23.670;2023-04-21T00:43:19;91041.50;;;4.93;82.56
44481;BME280;30184;42.018;23.670;2023-04-21T00:45:48;91114.59;;;5.38;82.95
44481;BME280;30184;42.018;23.670;2023-04-21T00:48:18;91065.97;;;5.02;82.99
44481;BME280;30184;42.018;23.670;2023-04-21T00:50:47;91111.66;;;5.29;83.05
44481;BME280;30184;42.018;23.670;2023-04-21T00:53:19;91079.22;;;4.89;83.06
44481;BME280;30184;42.018;23.670;2023-04-21T00:55:49;91109.50;;;5.20;83.25
44481;BME280;30184;42.018;23.670;2023-04-21T00:58:19;91115.69;;;5.17;83.39
44481;BME280;30184;42.018;23.670;2023-04-21T01:00:48;91111.88;;;5.14;83.66
44481;BME280;30184;42.018;23.670;2023-04-21T01:03:18;91113.84;;;5.10;84.02
44481;BME280;30184;42.018;23.670;2023-04-21T01:05:48;91117.78;;;5.06;84.01
44481;BME280;30184;42.018;23.670;2023-04-21T01:08:19;91110.50;;;5.03;83.98
44481;BME280;30184;42.018;23.670;2023-04-21T01:10:49;91109.75;;;5.02;84.17
44481;BME280;30184;42.018;23.670;2023-04-21T01:13:18;91109.44;;;4.97;84.43
44481;BME280;30184;42.018;23.670;2023-04-21T01:15:49;91119.13;;;4.91;84.54
44481;BME280;30184;42.018;23.670;2023-04-21T01:18:18;91057.84;;;4.52;84.51
44481;BME280;30184;42.018;23.670;2023-04-21T01:20:48;91115.38;;;4.84;84.54
44481;BME280;30184;42.018;23.670;2023-04-21T01:23:19;91117.69;;;4.82;84.54
44481;BME280;30184;42.018;23.670;2023-04-21T01:25:51;91110.44;;;4.79;84.76
44481;BME280;30184;42.018;23.670;2023-04-21T01:28:21;91115.09;;;4.75;84.72
44481;BME280;30184;42.018;23.670;2023-04-21T01:30:51;91073.63;;;4.46;85.03
44481;BME280;30184;42.018;23.670;2023-04-21T01:33:21;91101.41;;;4.66;85.19
44481;BME280;30184;42.018;23.670;2023-04-21T01:35:51;91109.44;;;4.70;85.03
44481;BME280;30184;42.018;23.670;2023-04-21T01:38:22;91110.22;;;4.67;85.08
44481;BME280;30184;42.018;23.670;2023-04-21T01:40:53;91102.63;;;4.62;85.16
44481;BME280;30184;42.018;23.670;2023-04-21T01:43:24;91100.72;;;4.59;85.07
44481;BME280;30184;42.018;23.670;2023-04-21T01:45:54;91107.31;;;4.54;85.28
44481;BME280;30184;42.018;23.670;2023-04-21T01:48:23;91110.03;;;4.50;85.44
44481;BME280;30184;42.018;23.670;2023-04-21T01:50:53;91112.75;;;4.47;85.47
44481;BME280;30184;42.018;23.670;2023-04-21T01:53:24;90894.06;;;2.92;85.35
44481;BME280;30184;42.018;23.670;2023-04-21T01:55:53;90799.50;;;2.17;85.32
44481;BME280;30184;42.018;23.670;2023-04-21T01:58:23;91117.56;;;4.29;85.72
44481;BME280;30184;42.018;23.670;2023-04-21T02:00:52;91103.94;;;4.16;85.50
44481;BME280;30184;42.018;23.670;2023-04-21T02:03:21;91118.03;;;4.24;85.68
44481;BME280;30184;42.018;23.670;2023-04-21T02:05:51;91064.34;;;3.86;85.80
44481;BME280;30184;42.018;23.670;2023-04-21T02:08:21;91121.53;;;4.17;85.94
44481;BME280;30184;42.018;23.670;2023-04-21T02:10:52;91120.44;;;4.15;86.01
44481;BME280;30184;42.018;23.670;2023-04-21T02:13:21;91127.75;;;4.10;85.83
44481;BME280;30184;42.018;23.670;2023-04-21T02:15:51;91119.75;;;4.07;85.84
44481;BME280;30184;42.018;23.670;2023-04-21T02:18:26;91114.41;;;4.03;86.02
44481;BME280;30184;42.018;23.670;2023-04-21T02:20:57;91123.63;;;4.02;85.97
44481;BME280;30184;42.018;23.670;2023-04-21T02:23:26;91120.22;;;3.98;86.24
44481;BME280;30184;42.018;23.670;2023-04-21T02:25:57;91119.50;;;3.91;86.80
44481;BME280;30184;42.018;23.670;2023-04-21T02:28:26;91103.88;;;3.82;86.67
44481;BME280;30184;42.018;23.670;2023-04-21T02:30:56;91105.41;;;3.83;86.93
44481;BME280;30184;42.018;23.670;2023-04-21T02:33:26;91120.34;;;3.84;86.93
44481;BME280;30184;42.018;23.670;2023-04-21T02:35:55;91106.63;;;3.75;86.91
44481;BME280;30184;42.018;23.670;2023-04-21T02:38:25;91115.00;;;3.81;86.87
44481;BME280;30184;42.018;23.670;2023-04-21T02:40:56;91114.31;;;3.73;86.77
44481;BME280;30184;42.018;23.670;2023-04-21T02:43:26;91112.38;;;3.77;86.96
44481;BME280;30184;42.018;23.670;2023-04-21T02:45:56;91114.31;;;3.73;86.93
44481;BME280;30184;42.018;23.670;2023-04-21T02:48:26;91111.25;;;3.71;86.86
44481;BME280;30184;42.018;23.670;2023-04-21T02:50:55;91125.09;;;3.69;87.02
44481;BME280;30184;42.018;23.670;2023-04-21T02:53:25;91137.84;;;3.55;87.00
44481;BME280;30184;42.018;23.670;2023-04-21T02:55:54;91116.75;;;3.57;87.51
44481;BME280;30184;42.018;23.670;2023-04-21T02:58:25;91119.44;;;3.57;87.53
44481;BME280;30184;42.018;23.670;2023-04-21T03:00:54;91116.38;;;3.55;87.65
44481;BME280;30184;42.018;23.670;2023-04-21T03:03:24;91122.56;;;3.52;87.81
44481;BME280;30184;42.018;23.670;2023-04-21T03:05:56;91117.59;;;3.50;87.90
44481;BME280;30184;42.018;23.670;2023-04-21T03:08:25;91119.13;;;3.48;87.81
44481;BME280;30184;42.018;23.670;2023-04-21T03:10:54;91119.53;;;3.46;87.92
44481;BME280;30184;42.018;23.670;2023-04-21T03:13:26;91120.31;;;3.43;88.19
44481;BME280;30184;42.018;23.670;2023-04-21T03:15:55;91122.28;;;3.39;88.13
44481;BME280;30184;42.018;23.670;2023-04-21T03:18:24;90871.06;;;1.40;87.98
44481;BME280;30184;42.018;23.670;2023-04-21T03:20:58;91148.84;;;3.19;88.30
44481;BME280;30184;42.018;23.670;2023-04-21T03:23:28;91125.41;;;3.30;88.31
44481;BME280;30184;42.018;23.670;2023-04-21T03:25:58;91157.22;;;3.28;88.39
44481;BME280;30184;42.018;23.670;2023-04-21T03:28:29;91120.06;;;3.27;88.43
44481;BME280;30184;42.018;23.670;2023-04-21T03:30:58;91126.56;;;3.26;88.60
44481;BME280;30184;42.018;23.670;2023-04-21T03:33:27;91125.84;;;3.22;88.38
44481;BME280;30184;42.018;23.670;2023-04-21T03:35:57;91127.78;;;3.21;88.35
44481;BME280;30184;42.018;23.670;2023-04-21T03:38:29;91136.19;;;3.20;88.45
44481;BME280;30184;42.018;23.670;2023-04-21T03:41:02;91153.44;;;3.19;88.50
44481;BME280;30184;42.018;23.670;2023-04-21T03:43:34;91134.69;;;3.19;88.57
44481;BME280;30184;42.018;23.670;2023-04-21T03:46:04;91158.44;;;3.17;88.49
44481;BME280;30184;42.018;23.670;2023-04-21T03:48:34;91123.97;;;3.15;88.47
44481;BME280;30184;42.018;23.670;2023-04-21T03:51:03;91129.31;;;3.15;88.29
44481;BME280;30184;42.018;23.670;2023-04-21T03:53:33;91131.63;;;3.17;88.43
44481;BME280;30184;42.018;23.670;2023-04-21T03:56:03;91070.00;;;2.54;88.33
44481;BME280;30184;42.018;23.670;2023-04-21T03:58:34;91134.69;;;3.15;88.51
44481;BME280;30184;42.018;23.670;2023-04-21T04:01:04;91135.44;;;3.16;88.60
44481;BME280;30184;42.018;23.670;2023-04-21T04:03:34;91148.84;;;3.19;88.69
44481;BME280;30184;42.018;23.670;2023-04-21T04:06:04;91146.53;;;3.21;88.63
44481;BME280;30184;42.018;23.670;2023-04-21T04:08:35;91141.56;;;3.20;88.55
44481;BME280;30184;42.018;23.670;2023-04-21T04:11:04;91135.44;;;3.16;88.53
44481;BME280;30184;42.018;23.670;2023-04-21T04:13:36;91147.69;;;3.20;88.44
44481;BME280;30184;42.018;23.670;2023-04-21T04:16:06;91169.97;;;3.14;88.48
44481;BME280;30184;42.018;23.670;2023-04-21T04:18:36;91103.09;;;2.89;88.45
44481;BME280;30184;42.018;23.670;2023-04-21T04:21:06;91098.47;;;2.93;88.47
44481;BME280;30184;42.018;23.670;2023-04-21T04:23:36;91153.00;;;3.27;88.64
44481;BME280;30184;42.018;23.670;2023-04-21T04:26:05;91149.28;;;3.14;88.64
44481;BME280;30184;42.018;23.670;2023-04-21T04:28:37;91157.53;;;3.34;88.59
44481;BME280;30184;42.018;23.670;2023-04-21T04:31:08;91162.13;;;3.37;88.63
44481;BME280;30184;42.018;23.670;2023-04-21T04:33:39;91156.75;;;3.41;88.42
44481;BME280;30184;42.018;23.670;2023-04-21T04:36:10;91155.22;;;3.36;88.06
44481;BME280;30184;42.018;23.670;2023-04-21T04:38:40;91101.47;;;3.02;88.04
44481;BME280;30184;42.018;23.670;2023-04-21T04:41:09;91153.63;;;3.46;88.02
44481;BME280;30184;42.018;23.670;2023-04-21T04:43:41;91139.91;;;3.36;87.85
44481;BME280;30184;42.018;23.670;2023-04-21T04:46:10;91157.00;;;3.53;87.77
44481;BME280;30184;42.018;23.670;2023-04-21T04:48:40;91155.47;;;3.59;87.61
44481;BME280;30184;42.018;23.670;2023-04-21T04:51:10;91163.47;;;3.63;87.52
44481;BME280;30184;42.018;23.670;2023-04-21T04:53:39;91162.66;;;3.69;87.29
44481;BME280;30184;42.018;23.670;2023-04-21T04:56:09;91122.88;;;3.57;87.27
44481;BME280;30184;42.018;23.670;2023-04-21T04:58:39;91150.59;;;3.88;87.26
44481;BME280;30184;42.018;23.670;2023-04-21T05:01:13;91143.16;;;4.06;86.97
44481;BME280;30184;42.018;23.670;2023-04-21T05:03:44;91136.50;;;4.18;86.61
44481;BME280;30184;42.018;23.670;2023-04-21T05:06:13;91088.91;;;3.85;85.89
44481;BME280;30184;42.018;23.670;2023-04-21T05:08:43;91138.09;;;4.46;85.76
44481;BME280;30184;42.018;23.670;2023-04-21T05:11:13;91147.72;;;4.77;85.18
44481;BME280;30184;42.018;23.670;2023-04-21T05:13:42;91146.03;;;4.91;84.83
44481;BME280;30184;42.018;23.670;2023-04-21T05:16:14;91145.81;;;5.05;84.21
44481;BME280;30184;42.018;23.670;2023-04-21T05:18:43;91010.78;;;4.09;83.30
44481;BME280;30184;42.018;23.670;2023-04-21T05:21:12;91120.25;;;5.20;82.99
44481;BME280;30184;42.018;23.670;2023-04-21T05:23:42;91152.78;;;5.56;82.44
44481;BME280;30184;42.018;23.670;2023-04-21T05:26:11;91166.25;;;5.79;81.90
44481;BME280;30184;42.018;23.670;2023-04-21T05:28:41;91136.25;;;6.04;80.83
44481;BME280;30184;42.018;23.670;2023-04-21T05:31:10;91132.06;;;6.23;79.38
44481;BME280;30184;42.018;23.670;2023-04-21T05:33:41;91143.00;;;6.35;78.57
44481;BME280;30184;42.018;23.670;2023-04-21T05:36:10;91133.47;;;6.51;78.45
44481;BME280;30184;42.018;23.670;2023-04-21T05:38:40;91128.19;;;6.67;78.04
44481;BME280;30184;42.018;23.670;2023-04-21T05:41:09;90986.38;;;5.74;78.04
44481;BME280;30184;42.018;23.670;2023-04-21T05:43:39;91170.06;;;6.91;77.96
44481;BME280;30184;42.018;23.670;2023-04-21T05:46:09;91133.94;;;7.05;77.73
44481;BME280;30184;42.018;23.670;2023-04-21T05:48:38;91128.59;;;7.21;77.33
44481;BME280;30184;42.018;23.670;2023-04-21T05:51:11;91119.41;;;7.35;76.43
44481;BME280;30184;42.018;23.670;2023-04-21T05:53:44;91122.88;;;7.52;76.01
44481;BME280;30184;42.018;23.670;2023-04-21T05:56:13;91120.28;;;7.64;75.59
44481;BME280;30184;42.018;23.670;2023-04-21T05:58:42;91116.00;;;7.83;74.68
44481;BME280;30184;42.018;23.670;2023-04-21T06:01:12;91102.72;;;7.88;73.88
44481;BME280;30184;42.018;23.670;2023-04-21T06:03:42;91121.69;;;8.17;73.59
44481;BME280;30184;42.018;23.670;2023-04-21T06:06:12;91109.69;;;8.35;72.19
44481;BME280;30184;42.018;23.670;2023-04-21T06:08:42;91106.53;;;8.52;72.80
44481;BME280;30184;42.018;23.670;2023-04-21T06:11:11;91108.84;;;8.67;70.49
44481;BME280;30184;42.018;23.670;2023-04-21T06:13:40;91101.97;;;8.78;69.69
44481;BME280;30184;42.018;23.670;2023-04-21T06:16:10;91102.66;;;8.95;69.65
44481;BME280;30184;42.018;23.670;2023-04-21T06:18:39;91090.31;;;8.94;68.77
44481;BME280;30184;42.018;23.670;2023-04-21T06:21:09;91097.81;;;9.28;68.94
44481;BME280;30184;42.018;23.670;2023-04-21T06:23:40;91099.69;;;9.44;68.19
44481;BME280;30184;42.018;23.670;2023-04-21T06:26:09;91090.69;;;9.59;66.24
44481;BME280;30184;42.018;23.670;2023-04-21T06:28:38;91112.66;;;9.74;65.48
44481;BME280;30184;42.018;23.670;2023-04-21T06:31:07;91092.16;;;9.98;64.75
44481;BME280;30184;42.018;23.670;2023-04-21T06:33:42;91004.66;;;9.63;64.00
44481;BME280;30184;42.018;23.670;2023-04-21T06:36:11;90919.94;;;9.16;63.21
44481;BME280;30184;42.018;23.670;2023-04-21T06:38:41;91078.16;;;10.47;62.81
44481;BME280;30184;42.018;23.670;2023-04-21T06:41:10;91084.75;;;10.80;62.13
44481;BME280;30184;42.018;23.670;2023-04-21T06:43:39;91082.59;;;10.97;59.95
44481;BME280;30184;42.018;23.670;2023-04-21T06:46:09;91068.78;;;11.13;60.02
44481;BME280;30184;42.018;23.670;2023-04-21T06:48:38;91070.00;;;11.43;60.43
44481;BME280;30184;42.018;23.670;2023-04-21T06:51:08;91064.19;;;11.63;59.29
44481;BME280;30184;42.018;23.670;2023-04-21T06:53:37;91039.63;;;11.67;58.86
44481;BME280;30184;42.018;23.670;2023-04-21T06:56:08;91064.78;;;11.98;59.02
44481;BME280;30184;42.018;23.670;2023-04-21T06:58:37;91051.38;;;12.13;58.58
44481;BME280;30184;42.018;23.670;2023-04-21T07:01:06;91056.97;;;12.27;56.50
44481;BME280;30184;42.018;23.670;2023-04-21T07:03:35;91047.94;;;12.49;55.70
44481;BME280;30184;42.018;23.670;2023-04-21T07:06:05;91043.53;;;12.69;54.85
44481;BME280;30184;42.018;23.670;2023-04-21T07:08:34;91045.00;;;12.89;54.62
44481;BME280;30184;42.018;23.670;2023-04-21T07:11:03;90989.69;;;12.74;54.44
44481;BME280;30184;42.018;23.670;2023-04-21T07:13:34;91048.75;;;13.28;54.44
44481;BME280;30184;42.018;23.670;2023-04-21T07:16:04;91031.50;;;13.31;53.00
44481;BME280;30184;42.018;23.670;2023-04-21T07:18:33;91035.06;;;13.46;54.34
44481;BME280;30184;42.018;23.670;2023-04-21T07:21:02;91004.94;;;13.50;53.67
44481;BME280;30184;42.018;23.670;2023-04-21T07:23:31;91036.88;;;13.82;52.67
44481;BME280;30184;42.018;23.670;2023-04-21T07:26:01;91041.72;;;13.87;50.57
44481;BME280;30184;42.018;23.670;2023-04-21T07:28:30;91022.72;;;13.69;51.45
44481;BME280;30184;42.018;23.670;2023-04-21T07:31:01;91046.91;;;13.76;51.50
44481;BME280;30184;42.018;23.670;2023-04-21T07:33:30;90958.97;;;13.33;53.07
44481;BME280;30184;42.018;23.670;2023-04-21T07:35:59;91037.06;;;13.78;nan
44481;BME280;30184;42.018;23.670;2023-04-21T07:38:28;90987.84;;;13.73;50.12
44481;BME280;30184;42.018;23.670;2023-04-21T07:40:58;91036.63;;;14.04;50.38
44481;BME280;30184;42.018;23.670;2023-04-21T07:43:28;91044.34;;;14.05;49.76
44481;BME280;30184;42.018;23.670;2023-04-21T07:45:57;91043.31;;;14.03;49.29
44481;BME280;30184;42.018;23.670;2023-04-21T07:48:28;91056.13;;;14.11;48.99
44481;BME280;30184;42.018;23.670;2023-04-21T07:50:57;91088.59;;;14.33;45.81
44481;BME280;30184;42.018;23.670;2023-04-21T07:53:27;91020.34;;;14.42;43.50
44481;BME280;30184;42.018;23.670;2023-04-21T07:55:57;90988.44;;;14.25;41.70
44481;BME280;30184;42.018;23.670;2023-04-21T07:58:26;91049.16;;;14.82;41.20
44481;BME280;30184;42.018;23.670;2023-04-21T08:00:55;91001.97;;;14.81;40.33
44481;BME280;30184;42.018;23.670;2023-04-21T08:03:25;91013.66;;;15.11;40.30
44481;BME280;30184;42.018;23.670;2023-04-21T08:05:55;91035.25;;;15.39;41.28
44481;BME280;30184;42.018;23.670;2023-04-21T08:08:25;91026.69;;;15.75;42.04
44481;BME280;30184;42.018;23.670;2023-04-21T08:10:54;90984.78;;;15.69;40.52
44481;BME280;30184;42.018;23.670;2023-04-21T08:13:23;91022.97;;;16.13;40.40
44481;BME280;30184;42.018;23.670;2023-04-21T08:15:53;90991.34;;;15.57;38.59
44481;BME280;30184;42.018;23.670;2023-04-21T08:18:22;91016.44;;;16.46;38.70
44481;BME280;30184;42.018;23.670;2023-04-21T08:20:51;91012.69;;;16.63;38.16
44481;BME280;30184;42.018;23.670;2023-04-21T08:23:23;90974.59;;;16.45;36.42
44481;BME280;30184;42.018;23.670;2023-04-21T08:25:53;91018.84;;;16.78;35.96
44481;BME280;30184;42.018;23.670;2023-04-21T08:28:22;90982.06;;;16.85;34.65
44481;BME280;30184;42.018;23.670;2023-04-21T08:30:51;91005.84;;;16.99;35.27
44481;BME280;30184;42.018;23.670;2023-04-21T08:33:20;90988.97;;;17.06;35.02
44481;BME280;30184;42.018;23.670;2023-04-21T08:35:49;90990.88;;;16.95;34.83
44481;BME280;30184;42.018;23.670;2023-04-21T08:38:29;90994.66;;;17.23;34.07
44481;BME280;30184;42.018;23.670;2023-04-21T08:40:58;90995.72;;;17.31;34.77
44481;BME280;30184;42.018;23.670;2023-04-21T08:43:28;90982.06;;;17.68;34.00
44481;BME280;30184;42.018;23.670;2023-04-21T08:45:58;90977.66;;;17.82;34.56
44481;BME280;30184;42.018;23.670;2023-04-21T08:48:28;90981.88;;;17.77;33.60
44481;BME280;30184;42.018;23.670;2023-04-21T08:51:00;90997.53;;;17.71;33.60
44481;BME280;30184;42.018;23.670;2023-04-21T08:53:31;90994.03;;;17.71;32.76
44481;BME280;30184;42.018;23.670;2023-04-21T08:56:01;90986.09;;;17.73;32.90
44481;BME280;30184;42.018;23.670;2023-04-21T08:58:37;90984.44;;;17.86;33.19
44481;BME280;30184;42.018;23.670;2023-04-21T09:01:06;90980.91;;;18.23;32.77
44481;BME280;30184;42.018;23.670;2023-04-21T09:03:35;90977.50;;;18.39;32.46
44481;BME280;30184;42.018;23.670;2023-04-21T09:06:06;90985.13;;;18.18;31.66
44481;BME280;30184;42.018;23.670;2023-04-21T09:08:41;90968.56;;;18.02;31.92
44481;BME280;30184;42.018;23.670;2023-04-21T09:11:13;90970.28;;;17.99;32.55
44481;BME280;30184;42.018;23.670;2023-04-21T09:13:42;90966.19;;;17.78;32.54
44481;BME280;30184;42.018;23.670;2023-04-21T09:16:16;91018.00;;;17.70;33.03
44481;BME280;30184;42.018;23.670;2023-04-21T09:18:47;90959.78;;;17.61;33.11
44481;BME280;30184;42.018;23.670;2023-04-21T09:21:17;90969.16;;;17.48;32.65
44481;BME280;30184;42.018;23.670;2023-04-21T09:23:50;90960.56;;;17.35;33.19
44481;BME280;30184;42.018;23.670;2023-04-21T09:26:20;90971.91;;;17.48;33.41
44481;BME280;30184;42.018;23.670;2023-04-21T09:28:51;90956.41;;;17.45;32.26
44481;BME280;30184;42.018;23.670;2023-04-21T09:31:21;90939.31;;;17.56;32.99
44481;BME280;30184;42.018;23.670;2023-04-21T09:33:53;90939.16;;;17.71;33.63
44481;BME280;30184;42.018;23.670;2023-04-21T09:36:26;90956.94;;;17.81;32.18
44481;BME280;30184;42.018;23.670;2023-04-21T09:38:58;90931.19;;;17.73;31.52
44481;BME280;30184;42.018;23.670;2023-04-21T09:41:31;90911.66;;;17.60;32.11
44481;BME280;30184;42.018;23.670;2023-04-21T09:44:00;90959.91;;;18.14;32.57
44481;BME280;30184;42.018;23.670;2023-04-21T09:46:33;90900.16;;;17.61;31.48
44481;BME280;30184;42.018;23.670;2023-04-21T09:49:03;90955.25;;;17.89;32.37
44481;BME280;30184;42.018;23.670;2023-04-21T09:51:33;90961.88;;;17.71;32.16
44481;BME280;30184;42.018;23.670;2023-04-21T09:54:11;90957.31;;;17.63;31.82
44481;BME280;30184;42.018;23.670;2023-04-21T09:56:48;90964.84;;;17.68;32.64
44481;BME280;30184;42.018;23.670;2023-04-21T09:59:19;90964.09;;;17.67;33.21
44481;BME280;30184;42.018;23.670;2023-04-21T10:01:54;90902.31;;;17.14;35.14
44481;BME280;30184;42.018;23.670;2023-04-21T10:04:26;90958.59;;;17.36;35.81
44481;BME280;30184;42.018;23.670;2023-04-21T10:06:57;90950.94;;;17.14;36.14
44481;BME280;30184;42.018;23.670;2023-04-21T10:09:32;90879.91;;;16.59;36.40
44481;BME280;30184;42.018;23.670;2023-04-21T10:12:03;90960.13;;;17.11;36.33
44481;BME280;30184;42.018;23.670;2023-04-21T10:14:34;90961.56;;;17.32;36.09
44481;BME280;30184;42.018;23.670;2023-04-21T10:17:04;90941.94;;;17.39;36.89
44481;BME280;30184;42.018;23.670;2023-04-21T10:19:35;90951.22;;;17.79;35.18
44481;BME280;30184;42.018;23.670;2023-04-21T10:22:07;90966.50;;;17.91;35.04
44481;BME280;30184;42.018;23.670;2023-04-21T10:24:39;90856.97;;;17.50;34.77
44481;BME280;30184;42.018;23.670;2023-04-21T10:27:09;90941.19;;;18.18;32.47
44481;BME280;30184;42.018;23.670;2023-04-21T10:29:39;90946.72;;;18.24;32.14
44481;BME280;30184;42.018;23.670;2023-04-21T10:32:30;90951.22;;;18.27;32.57
44481;BME280;30184;42.018;23.670;2023-04-21T10:35:00;90933.22;;;18.26;32.37
44481;BME280;30184;42.018;23.670;2023-04-21T10:37:30;90922.00;;;18.24;32.16
44481;BME280;30184;42.018;23.670;2023-04-21T10:40:01;90943.78;;;18.44;32.19
44481;BME280;30184;42.018;23.670;2023-04-21T10:42:34;90953.59;;;18.51;31.66
44481;BME280;30184;42.018;23.670;2023-04-21T10:45:09;90942.31;;;18.43;30.67
44481;BME280;30184;42.018;23.670;2023-04-21T10:47:44;90921.75;;;18.22;31.08
44481;BME280;30184;42.018;23.670;2023-04-21T10:50:16;90945.22;;;18.23;31.31
44481;BME280;30184;42.018;23.670;2023-04-21T10:52:52;90935.84;;;17.98;31.66
44481;BME280;30184;42.018;23.670;2023-04-21T10:55:27;90892.78;;;17.73;32.30
44481;BME280;30184;42.018;23.670;2023-04-21T10:58:01;90952.34;;;18.04;32.29
44481;BME280;30184;42.018;23.670;2023-04-21T11:00:31;90947.63;;;18.04;31.84
44481;BME280;30184;42.018;23.670;2023-04-21T11:03:02;90935.34;;;17.94;32.30
44481;BME280;30184;42.018;23.670;2023-04-21T11:05:35;90901.00;;;17.67;31.96
44481;BME280;30184;42.018;23.670;2023-04-21T11:08:12;90910.81;;;17.85;32.15
44481;BME280;30184;42.018;23.670;2023-04-21T11:10:49;90934.03;;;17.89;32.66
44481;BME280;30184;42.018;23.670;2023-04-21T11:13:24;90939.72;;;17.80;33.83
44481;BME280;30184;42.018;23.670;2023-04-21T11:16:04;90946.78;;;17.87;34.18
44481;BME280;30184;42.018;23.670;2023-04-21T11:18:39;90944.03;;;17.87;34.35
44481;BME280;30184;42.018;23.670;2023-04-21T11:21:11;90946.03;;;17.86;34.13
44481;BME280;30184;42.018;23.670;2023-04-21T11:23:52;90882.66;;;17.53;33.90
44481;BME280;30184;42.018;23.670;2023-04-21T11:26:30;90946.44;;;17.74;33.72
44481;BME280;30184;42.018;23.670;2023-04-21T11:29:01;90943.88;;;17.65;33.71
44481;BME280;30184;42.018;23.670;2023-04-21T11:31:31;90937.19;;;17.71;34.21
44481;BME280;30184;42.018;23.670;2023-04-21T11:34:01;90933.25;;;17.78;33.39
44481;BME280;30184;42.018;23.670;2023-04-21T11:36:32;90878.09;;;17.39;33.28
44481;BME280;30184;42.018;23.670;2023-04-21T11:39:03;90933.34;;;17.95;33.52
44481;BME280;30184;42.018;23.670;2023-04-21T11:41:38;90880.44;;;17.94;33.61
44481;BME280;30184;42.018;23.670;2023-04-21T11:44:08;90924.84;;;18.46;31.88
44481;BME280;30184;42.018;23.670;2023-04-21T11:46:43;90910.81;;;18.44;30.83
44481;BME280;30184;42.018;23.670;2023-04-21T11:49:14;90912.13;;;18.54;32.12
44481;BME280;30184;42.018;23.670;2023-04-21T11:51:49;90916.66;;;18.63;32.03
44481;BME280;30184;42.018;23.670;2023-04-21T11:54:19;90897.19;;;18.61;31.99
44481;BME280;30184;42.018;23.670;2023-04-21T11:56:53;90918.69;;;18.74;30.66
44481;BME280;30184;42.018;23.670;2023-04-21T11:59:23;90916.97;;;18.71;30.01
44481;BME280;30184;42.018;23.670;2023-04-21T12:01:53;90917.94;;;18.73;30.46
44481;BME280;30184;42.018;23.670;2023-04-21T12:04:24;90917.94;;;18.62;29.49
44481;BME280;30184;42.018;23.670;2023-04-21T12:06:57;90919.81;;;18.34;29.63
44481;BME280;30184;42.018;23.670;2023-04-21T12:09:27;90918.78;;;18.31;30.08
44481;BME280;30184;42.018;23.670;2023-04-21T12:11:58;90918.09;;;18.42;30.53
44481;BME280;30184;42.018;23.670;2023-04-21T12:14:32;90920.34;;;18.43;30.39
44481;BME280;30184;42.018;23.670;2023-04-21T12:17:05;90906.19;;;18.61;30.18
44481;BME280;30184;42.018;23.670;2023-04-21T12:19:36;90908.75;;;18.87;30.79
44481;BME280;30184;42.018;23.670;2023-04-21T12:22:06;90915.25;;;19.01;30.63
44481;BME280;30184;42.018;23.670;2023-04-21T12:24:36;90900.00;;;19.00;30.35
44481;BME280;30184;42.018;23.670;2023-04-21T12:27:08;90927.50;;;19.06;29.58
44481;BME280;30184;42.018;23.670;2023-04-21T12:29:38;90903.25;;;19.10;31.05
44481;BME280;30184;42.018;23.670;2023-04-21T12:32:08;90900.78;;;19.17;30.63
44481;BME280;30184;42.018;23.670;2023-04-21T12:34:37;90857.00;;;18.91;30.52
44481;BME280;30184;42.018;23.670;2023-04-21T12:37:07;90893.75;;;19.11;29.42
44481;BME280;30184;42.018;23.670;2023-04-21T12:39:37;90889.25;;;18.85;30.20
44481;BME280;30184;42.018;23.670;2023-04-21T12:42:08;90794.41;;;18.19;30.41
44481;BME280;30184;42.018;23.670;2023-04-21T12:44:37;90890.00;;;18.80;30.60
44481;BME280;30184;42.018;23.670;2023-04-21T12:47:07;90889.22;;;18.74;30.69
44481;BME280;30184;42.018;23.670;2023-04-21T12:49:37;90881.22;;;18.76;31.72
44481;BME280;30184;42.018;23.670;2023-04-21T12:52:06;90882.25;;;18.84;30.44
44481;BME280;30184;42.018;23.670;2023-04-21T12:54:36;90869.53;;;18.98;30.46
44481;BME280;30184;42.018;23.670;2023-04-21T12:57:06;90867.00;;;19.28;29.84
44481;BME280;30184;42.018;23.670;2023-04-21T12:59:37;90862.75;;;19.38;30.16
44481;BME280;30184;42.018;23.670;2023-04-21T13:02:06;90889.53;;;19.49;29.84
44481;BME280;30184;42.018;23.670;2023-04-21T13:04:35;90873.03;;;19.43;30.81
44481;BME280;30184;42.018;23.670;2023-04-21T13:07:05;90869.03;;;19.33;30.27
44481;BME280;30184;42.018;23.670;2023-04-21T13:09:38;90871.78;;;19.16;29.87
44481;BME280;30184;42.018;23.670;2023-04-21T13:12:07;90864.25;;;19.11;29.69